sensor_id;sensor_type;location;lat;lon;timestamp;temperature;humidity
13682;DHT22;6913;49.892;7.936;2023-07-24T00:01:48;19.70;99.90
13682;DHT22;6913;49.892;7.936;2023-07-24T00:04:16;19.60;99.90
13682;DHT22;6913;49.892;7.936;2023-07-24T00:06:42;19.70;99.90
13682;DHT22;6913;49.892;7.936;2023-07-24T00:09:09;19.80;99.90
13682;DHT22;6913;49.892;7.936;2023-07-24T00:11:36;19.60;99.90
13682;DHT22;6913;49.892;7.936;2023-07-24T00:14:03;19.60;99.90
13682;DHT22;6913;49.892;7.936;2023-07-24T00:16:30;19.70;99.90
13682;DHT22;6913;49.892;7.936;2023-07-24T00:18:56;19.70;99.90
13682;DHT22;6913;49.892;7.936;2023-07-24T00:21:24;19.80;99.90
13682;DHT22;6913;49.892;7.936;2023-07-24T00:23:51;19.80;99.90
13682;DHT22;6913;49.892;7.936;2023-07-24T00:26:18;19.90;99.90
13682;DHT22;6913;49.892;7.936;2023-07-24T00:28:45;19.90;99.90
13682;DHT22;6913;49.892;7.936;2023-07-24T00:31:11;19.90;99.90
13682;DHT22;6913;49.892;7.936;2023-07-24T00:33:38;19.90;99.90
13682;DHT22;6913;49.892;7.936;2023-07-24T00:36:05;19.90;99.90
13682;DHT22;6913;49.892;7.936;2023-07-24T00:38:33;19.90;99.90
13682;DHT22;6913;49.892;7.936;2023-07-24T00:41:00;19.60;99.90
13682;DHT22;6913;49.892;7.936;2023-07-24T00:43:26;19.60;99.90
13682;DHT22;6913;49.892;7.936;2023-07-24T00:45:54;19.60;99.90
13682;DHT22;6913;49.892;7.936;2023-07-24T00:48:22;19.50;99.90
13682;DHT22;6913;49.892;7.936;2023-07-24T00:50:49;19.50;99.90
13682;DHT22;6913;49.892;7.936;2023-07-24T00:53:17;19.50;99.90
13682;DHT22;6913;49.892;7.936;2023-07-24T00:55:46;19.80;99.90
13682;DHT22;6913;49.892;7.936;2023-07-24T00:58:13;19.50;99.90
13682;DHT22;6913;49.892;7.936;2023-07-24T01:00:42;19.50;99.90
13682;DHT22;6913;49.892;7.936;2023-07-24T01:03:09;19.20;99.90
13682;DHT22;6913;49.892;7.936;2023-07-24T01:05:37;19.30;99.90
13682;DHT22;6913;49.892;7.936;2023-07-24T01:08:06;19.20;99.90
13682;DHT22;6913;49.892;7.936;2023-07-24T01:10:32;19.10;99.90
13682;DHT22;6913;49.892;7.936;2023-07-24T01:13:04;19.20;99.90
13682;DHT22;6913;49.892;7.936;2023-07-24T01:15:33;19.30;99.90
13682;DHT22;6913;49.892;7.936;2023-07-24T01:18:03;19.20;99.90
13682;DHT22;6913;49.892;7.936;2023-07-24T01:20:35;19.40;99.90
13682;DHT22;6913;49.892;7.936;2023-07-24T01:23:14;19.30;99.90
13682;DHT22;6913;49.892;7.936;2023-07-24T01:25:59;19.30;99.90
13682;DHT22;6913;49.892;7.936;2023-07-24T01:28:28;19.30;99.90
13682;DHT22;6913;49.892;7.936;2023-07-24T01:30:55;19.50;99.90
13682;DHT22;6913;49.892;7.936;2023-07-24T01:33:23;19.10;99.90
13682;DHT22;6913;49.892;7.936;2023-07-24T01:35:53;19.00;99.90
13682;DHT22;6913;49.892;7.936;2023-07-24T01:38:21;19.00;99.90
13682;DHT22;6913;49.892;7.936;2023-07-24T01:40:50;19.10;99.90
13682;DHT22;6913;49.892;7.936;2023-07-24T01:43:19;19.10;99.90
13682;DHT22;6913;49.892;7.936;2023-07-24T01:45:46;19.00;99.90
13682;DHT22;6913;49.892;7.936;2023-07-24T01:48:13;18.70;99.90
13682;DHT22;6913;49.892;7.936;2023-07-24T01:50:40;18.80;99.90
13682;DHT22;6913;49.892;7.936;2023-07-24T01:53:06;18.60;99.90
13682;DHT22;6913;49.892;7.936;2023-07-24T01:55:33;18.80;99.90
13682;DHT22;6913;49.892;7.936;2023-07-24T01:58:00;18.90;99.90
13682;DHT22;6913;49.892;7.936;2023-07-24T02:00:29;18.90;99.90
13682;DHT22;6913;49.892;7.936;2023-07-24T02:02:55;19.00;99.90
13682;DHT22;6913;49.892;7.936;2023-07-24T02:05:22;19.00;99.90
13682;DHT22;6913;49.892;7.936;2023-07-24T02:07:49;19.00;99.90
13682;DHT22;6913;49.892;7.936;2023-07-24T02:10:16;19.00;99.90
13682;DHT22;6913;49.892;7.936;2023-07-24T02:12:43;19.00;99.90
13682;DHT22;6913;49.892;7.936;2023-07-24T02:15:10;19.00;99.90
13682;DHT22;6913;49.892;7.936;2023-07-24T02:17:38;18.90;99.90
13682;DHT22;6913;49.892;7.936;2023-07-24T02:20:06;18.90;99.90
13682;DHT22;6913;49.892;7.936;2023-07-24T02:22:33;18.80;99.90
13682;DHT22;6913;49.892;7.936;2023-07-24T02:25:01;18.70;99.90
13682;DHT22;6913;49.892;7.936;2023-07-24T02:27:29;18.60;99.90
13682;DHT22;6913;49.892;7.936;2023-07-24T02:29:57;18.60;99.90
13682;DHT22;6913;49.892;7.936;2023-07-24T02:32:23;18.50;99.90
13682;DHT22;6913;49.892;7.936;2023-07-24T02:34:53;18.40;99.90
13682;DHT22;6913;49.892;7.936;2023-07-24T02:37:19;18.30;99.90
13682;DHT22;6913;49.892;7.936;2023-07-24T02:39:46;18.20;99.90
13682;DHT22;6913;49.892;7.936;2023-07-24T02:42:13;18.10;99.90
13682;DHT22;6913;49.892;7.936;2023-07-24T02:44:40;18.00;99.90
13682;DHT22;6913;49.892;7.936;2023-07-24T02:47:07;18.10;99.90
13682;DHT22;6913;49.892;7.936;2023-07-24T02:49:34;18.20;99.90
13682;DHT22;6913;49.892;7.936;2023-07-24T02:52:02;18.20;99.90
13682;DHT22;6913;49.892;7.936;2023-07-24T02:54:29;18.10;99.90
13682;DHT22;6913;49.892;7.936;2023-07-24T02:56:56;17.90;99.90
13682;DHT22;6913;49.892;7.936;2023-07-24T02:59:23;17.90;99.90
13682;DHT22;6913;49.892;7.936;2023-07-24T03:01:50;17.90;99.90
13682;DHT22;6913;49.892;7.936;2023-07-24T03:04:17;17.70;99.90
13682;DHT22;6913;49.892;7.936;2023-07-24T03:06:44;17.80;99.90
13682;DHT22;6913;49.892;7.936;2023-07-24T03:09:12;17.80;99.90
13682;DHT22;6913;49.892;7.936;2023-07-24T03:11:39;17.70;99.90
13682;DHT22;6913;49.892;7.936;2023-07-24T03:14:06;17.70;99.90
13682;DHT22;6913;49.892;7.936;2023-07-24T03:16:33;17.70;99.90
13682;DHT22;6913;49.892;7.936;2023-07-24T03:19:00;17.70;99.90
13682;DHT22;6913;49.892;7.936;2023-07-24T03:21:26;17.80;99.90
13682;DHT22;6913;49.892;7.936;2023-07-24T03:23:53;17.80;99.90
13682;DHT22;6913;49.892;7.936;2023-07-24T03:26:21;17.70;99.90
13682;DHT22;6913;49.892;7.936;2023-07-24T03:28:48;17.70;99.90
13682;DHT22;6913;49.892;7.936;2023-07-24T03:31:15;17.70;99.90
13682;DHT22;6913;49.892;7.936;2023-07-24T03:33:42;17.60;99.90
13682;DHT22;6913;49.892;7.936;2023-07-24T03:36:09;17.60;99.90
13682;DHT22;6913;49.892;7.936;2023-07-24T03:38:36;17.70;99.90
13682;DHT22;6913;49.892;7.936;2023-07-24T03:41:03;17.70;99.90
13682;DHT22;6913;49.892;7.936;2023-07-24T03:43:31;17.70;99.90
13682;DHT22;6913;49.892;7.936;2023-07-24T03:45:58;17.70;99.90
13682;DHT22;6913;49.892;7.936;2023-07-24T03:48:24;17.50;99.90
13682;DHT22;6913;49.892;7.936;2023-07-24T03:50:58;17.40;99.90
13682;DHT22;6913;49.892;7.936;2023-07-24T03:53:25;17.50;99.90
13682;DHT22;6913;49.892;7.936;2023-07-24T03:55:54;17.50;99.90
13682;DHT22;6913;49.892;7.936;2023-07-24T03:58:21;17.60;99.90
13682;DHT22;6913;49.892;7.936;2023-07-24T04:00:49;17.70;99.90
13682;DHT22;6913;49.892;7.936;2023-07-24T04:03:17;17.70;99.90
13682;DHT22;6913;49.892;7.936;2023-07-24T04:05:43;17.70;99.90
13682;DHT22;6913;49.892;7.936;2023-07-24T04:08:11;17.60;99.90
13682;DHT22;6913;49.892;7.936;2023-07-24T04:10:38;17.70;99.90
13682;DHT22;6913;49.892;7.936;2023-07-24T04:13:05;17.70;99.90
13682;DHT22;6913;49.892;7.936;2023-07-24T04:15:32;17.80;99.90
13682;DHT22;6913;49.892;7.936;2023-07-24T04:18:00;17.70;99.90
13682;DHT22;6913;49.892;7.936;2023-07-24T04:20:27;17.70;99.90
13682;DHT22;6913;49.892;7.936;2023-07-24T04:22:54;17.80;99.90
13682;DHT22;6913;49.892;7.936;2023-07-24T04:25:21;17.80;99.90
13682;DHT22;6913;49.892;7.936;2023-07-24T04:27:47;17.80;99.90
13682;DHT22;6913;49.892;7.936;2023-07-24T04:30:14;17.80;99.90
13682;DHT22;6913;49.892;7.936;2023-07-24T04:32:42;17.90;99.90
13682;DHT22;6913;49.892;7.936;2023-07-24T04:35:10;18.00;99.90
13682;DHT22;6913;49.892;7.936;2023-07-24T04:37:37;18.10;99.90
13682;DHT22;6913;49.892;7.936;2023-07-24T04:40:05;18.10;99.90
13682;DHT22;6913;49.892;7.936;2023-07-24T04:42:32;18.20;99.90
13682;DHT22;6913;49.892;7.936;2023-07-24T04:44:59;18.30;99.90
13682;DHT22;6913;49.892;7.936;2023-07-24T04:47:26;18.20;99.90
13682;DHT22;6913;49.892;7.936;2023-07-24T04:49:52;18.30;99.90
13682;DHT22;6913;49.892;7.936;2023-07-24T04:52:22;18.30;99.90
13682;DHT22;6913;49.892;7.936;2023-07-24T04:54:49;18.30;99.90
13682;DHT22;6913;49.892;7.936;2023-07-24T04:57:15;18.20;99.90
13682;DHT22;6913;49.892;7.936;2023-07-24T04:59:42;18.30;99.90
13682;DHT22;6913;49.892;7.936;2023-07-24T05:02:09;18.40;99.90
13682;DHT22;6913;49.892;7.936;2023-07-24T05:04:36;18.30;99.90
13682;DHT22;6913;49.892;7.936;2023-07-24T05:07:03;18.20;99.90
13682;DHT22;6913;49.892;7.936;2023-07-24T05:09:31;18.30;99.90
13682;DHT22;6913;49.892;7.936;2023-07-24T05:11:58;18.20;99.90
13682;DHT22;6913;49.892;7.936;2023-07-24T05:14:25;18.10;99.90
13682;DHT22;6913;49.892;7.936;2023-07-24T05:16:52;18.10;99.90
13682;DHT22;6913;49.892;7.936;2023-07-24T05:21:46;18.50;99.90
13682;DHT22;6913;49.892;7.936;2023-07-24T05:24:13;18.60;99.90
13682;DHT22;6913;49.892;7.936;2023-07-24T05:26:41;18.60;99.90
13682;DHT22;6913;49.892;7.936;2023-07-24T05:29:08;18.60;99.90
13682;DHT22;6913;49.892;7.936;2023-07-24T05:31:35;18.70;99.90
13682;DHT22;6913;49.892;7.936;2023-07-24T05:34:02;18.80;99.90
13682;DHT22;6913;49.892;7.936;2023-07-24T05:36:30;18.90;99.90
13682;DHT22;6913;49.892;7.936;2023-07-24T05:38:57;18.60;99.90
13682;DHT22;6913;49.892;7.936;2023-07-24T05:41:24;18.50;99.90
13682;DHT22;6913;49.892;7.936;2023-07-24T05:43:52;18.40;99.90
13682;DHT22;6913;49.892;7.936;2023-07-24T05:46:19;18.60;99.90
13682;DHT22;6913;49.892;7.936;2023-07-24T05:48:46;18.80;99.90
13682;DHT22;6913;49.892;7.936;2023-07-24T05:51:13;19.00;99.90
13682;DHT22;6913;49.892;7.936;2023-07-24T05:53:40;19.10;99.90
13682;DHT22;6913;49.892;7.936;2023-07-24T05:56:07;19.20;99.90
13682;DHT22;6913;49.892;7.936;2023-07-24T05:58:33;19.30;99.90
13682;DHT22;6913;49.892;7.936;2023-07-24T06:01:02;19.30;99.90
13682;DHT22;6913;49.892;7.936;2023-07-24T06:03:29;19.40;99.90
13682;DHT22;6913;49.892;7.936;2023-07-24T06:05:56;19.50;99.90
13682;DHT22;6913;49.892;7.936;2023-07-24T06:08:23;19.70;99.90
13682;DHT22;6913;49.892;7.936;2023-07-24T06:13:17;19.90;99.90
13682;DHT22;6913;49.892;7.936;2023-07-24T06:15:46;20.00;99.90
13682;DHT22;6913;49.892;7.936;2023-07-24T06:18:14;20.00;99.90
13682;DHT22;6913;49.892;7.936;2023-07-24T06:20:41;20.20;99.90
13682;DHT22;6913;49.892;7.936;2023-07-24T06:23:08;20.30;99.90
13682;DHT22;6913;49.892;7.936;2023-07-24T06:25:35;20.40;99.90
13682;DHT22;6913;49.892;7.936;2023-07-24T06:28:02;20.60;99.90
13682;DHT22;6913;49.892;7.936;2023-07-24T06:30:29;20.70;99.90
13682;DHT22;6913;49.892;7.936;2023-07-24T06:32:56;20.90;99.90
13682;DHT22;6913;49.892;7.936;2023-07-24T06:35:24;21.00;99.90
13682;DHT22;6913;49.892;7.936;2023-07-24T06:37:51;21.20;99.90
13682;DHT22;6913;49.892;7.936;2023-07-24T06:40:18;21.10;99.90
13682;DHT22;6913;49.892;7.936;2023-07-24T06:42:45;21.30;99.90
13682;DHT22;6913;49.892;7.936;2023-07-24T06:45:12;21.40;99.90
13682;DHT22;6913;49.892;7.936;2023-07-24T06:47:39;21.60;99.90
13682;DHT22;6913;49.892;7.936;2023-07-24T06:50:07;21.90;99.90
13682;DHT22;6913;49.892;7.936;2023-07-24T06:52:35;21.90;99.90
13682;DHT22;6913;49.892;7.936;2023-07-24T06:55:03;21.80;99.90
13682;DHT22;6913;49.892;7.936;2023-07-24T06:57:30;21.70;99.90
13682;DHT22;6913;49.892;7.936;2023-07-24T06:59:57;21.70;99.90
13682;DHT22;6913;49.892;7.936;2023-07-24T07:02:24;21.80;99.90
13682;DHT22;6913;49.892;7.936;2023-07-24T07:04:50;21.70;99.90
13682;DHT22;6913;49.892;7.936;2023-07-24T07:07:17;21.70;99.90
13682;DHT22;6913;49.892;7.936;2023-07-24T07:09:46;21.70;99.90
13682;DHT22;6913;49.892;7.936;2023-07-24T07:12:12;21.70;99.90
13682;DHT22;6913;49.892;7.936;2023-07-24T07:14:39;21.70;99.90
13682;DHT22;6913;49.892;7.936;2023-07-24T07:17:06;21.70;99.90
13682;DHT22;6913;49.892;7.936;2023-07-24T07:19:33;21.60;99.90
13682;DHT22;6913;49.892;7.936;2023-07-24T07:22:01;21.60;99.90
13682;DHT22;6913;49.892;7.936;2023-07-24T07:24:28;21.60;99.90
13682;DHT22;6913;49.892;7.936;2023-07-24T07:26:56;21.70;99.90
13682;DHT22;6913;49.892;7.936;2023-07-24T07:29:23;21.80;99.90
13682;DHT22;6913;49.892;7.936;2023-07-24T07:31:50;21.90;99.90
13682;DHT22;6913;49.892;7.936;2023-07-24T07:34:17;22.00;99.90
13682;DHT22;6913;49.892;7.936;2023-07-24T07:36:44;22.00;99.90
13682;DHT22;6913;49.892;7.936;2023-07-24T07:39:11;22.10;99.90
13682;DHT22;6913;49.892;7.936;2023-07-24T07:41:38;22.20;99.90
13682;DHT22;6913;49.892;7.936;2023-07-24T07:44:06;22.20;99.90
13682;DHT22;6913;49.892;7.936;2023-07-24T07:46:33;22.20;99.90
13682;DHT22;6913;49.892;7.936;2023-07-24T07:49:00;22.30;99.90
13682;DHT22;6913;49.892;7.936;2023-07-24T07:51:27;22.30;99.90
13682;DHT22;6913;49.892;7.936;2023-07-24T07:53:54;22.20;99.90
13682;DHT22;6913;49.892;7.936;2023-07-24T07:56:20;22.20;99.90
13682;DHT22;6913;49.892;7.936;2023-07-24T07:58:47;22.20;99.90
13682;DHT22;6913;49.892;7.936;2023-07-24T08:01:16;22.40;99.90
13682;DHT22;6913;49.892;7.936;2023-07-24T08:03:42;22.30;99.90
13682;DHT22;6913;49.892;7.936;2023-07-24T08:06:10;22.40;99.90
13682;DHT22;6913;49.892;7.936;2023-07-24T08:08:37;22.40;99.90
13682;DHT22;6913;49.892;7.936;2023-07-24T08:11:05;22.30;99.90
13682;DHT22;6913;49.892;7.936;2023-07-24T08:13:32;22.30;99.90
13682;DHT22;6913;49.892;7.936;2023-07-24T08:15:59;22.20;99.90
13682;DHT22;6913;49.892;7.936;2023-07-24T08:18:30;22.60;99.90
13682;DHT22;6913;49.892;7.936;2023-07-24T08:20:56;23.10;99.90
13682;DHT22;6913;49.892;7.936;2023-07-24T08:23:23;23.50;99.90
13682;DHT22;6913;49.892;7.936;2023-07-24T08:25:54;23.60;99.90
13682;DHT22;6913;49.892;7.936;2023-07-24T08:28:21;23.90;99.90
13682;DHT22;6913;49.892;7.936;2023-07-24T08:30:56;24.00;99.90
13682;DHT22;6913;49.892;7.936;2023-07-24T08:33:23;23.90;99.90
13682;DHT22;6913;49.892;7.936;2023-07-24T08:35:59;24.00;99.90
13682;DHT22;6913;49.892;7.936;2023-07-24T08:38:26;24.30;99.90
13682;DHT22;6913;49.892;7.936;2023-07-24T08:41:03;24.40;99.90
13682;DHT22;6913;49.892;7.936;2023-07-24T08:43:31;24.40;99.90
13682;DHT22;6913;49.892;7.936;2023-07-24T08:45:58;24.40;99.90
13682;DHT22;6913;49.892;7.936;2023-07-24T08:48:26;24.60;99.90
13682;DHT22;6913;49.892;7.936;2023-07-24T08:50:57;24.80;99.90
13682;DHT22;6913;49.892;7.936;2023-07-24T08:53:26;24.80;99.90
13682;DHT22;6913;49.892;7.936;2023-07-24T08:55:53;24.80;99.90
13682;DHT22;6913;49.892;7.936;2023-07-24T08:58:21;24.90;99.90
13682;DHT22;6913;49.892;7.936;2023-07-24T09:00:48;24.80;99.90
13682;DHT22;6913;49.892;7.936;2023-07-24T09:03:17;24.60;99.90
13682;DHT22;6913;49.892;7.936;2023-07-24T09:05:44;24.50;99.90
13682;DHT22;6913;49.892;7.936;2023-07-24T09:08:12;24.50;99.90
13682;DHT22;6913;49.892;7.936;2023-07-24T09:10:40;24.70;99.90
13682;DHT22;6913;49.892;7.936;2023-07-24T09:13:07;24.90;99.90
13682;DHT22;6913;49.892;7.936;2023-07-24T09:15:40;24.90;99.90
13682;DHT22;6913;49.892;7.936;2023-07-24T09:18:07;25.10;99.90
13682;DHT22;6913;49.892;7.936;2023-07-24T09:20:39;25.30;99.90
13682;DHT22;6913;49.892;7.936;2023-07-24T09:23:06;25.50;99.90
13682;DHT22;6913;49.892;7.936;2023-07-24T09:25:35;26.00;99.90
13682;DHT22;6913;49.892;7.936;2023-07-24T09:28:09;25.80;99.90
13682;DHT22;6913;49.892;7.936;2023-07-24T09:30:37;25.60;99.90
13682;DHT22;6913;49.892;7.936;2023-07-24T09:33:04;26.00;99.90
13682;DHT22;6913;49.892;7.936;2023-07-24T09:35:31;26.70;99.90
13682;DHT22;6913;49.892;7.936;2023-07-24T09:38:08;26.20;99.90
13682;DHT22;6913;49.892;7.936;2023-07-24T09:40:41;26.00;99.90
13682;DHT22;6913;49.892;7.936;2023-07-24T09:43:16;26.40;99.90
13682;DHT22;6913;49.892;7.936;2023-07-24T09:45:43;26.70;99.90
13682;DHT22;6913;49.892;7.936;2023-07-24T09:48:12;26.80;99.90
13682;DHT22;6913;49.892;7.936;2023-07-24T09:50:41;26.80;99.10
13682;DHT22;6913;49.892;7.936;2023-07-24T09:53:13;26.30;99.50
13682;DHT22;6913;49.892;7.936;2023-07-24T09:55:47;26.40;98.90
13682;DHT22;6913;49.892;7.936;2023-07-24T09:58:16;26.30;99.50
13682;DHT22;6913;49.892;7.936;2023-07-24T10:00:45;26.60;99.70
13682;DHT22;6913;49.892;7.936;2023-07-24T10:03:13;26.60;99.30
13682;DHT22;6913;49.892;7.936;2023-07-24T10:05:41;26.50;97.80
13682;DHT22;6913;49.892;7.936;2023-07-24T10:08:08;26.40;98.20
13682;DHT22;6913;49.892;7.936;2023-07-24T10:10:36;26.30;98.00
13682;DHT22;6913;49.892;7.936;2023-07-24T10:13:04;26.20;98.60
13682;DHT22;6913;49.892;7.936;2023-07-24T10:15:32;26.40;99.00
13682;DHT22;6913;49.892;7.936;2023-07-24T10:18:02;26.50;98.00
13682;DHT22;6913;49.892;7.936;2023-07-24T10:20:33;26.50;98.40
13682;DHT22;6913;49.892;7.936;2023-07-24T10:23:01;26.60;99.60
13682;DHT22;6913;49.892;7.936;2023-07-24T10:25:32;26.60;99.90
13682;DHT22;6913;49.892;7.936;2023-07-24T10:28:05;26.60;99.90
13682;DHT22;6913;49.892;7.936;2023-07-24T10:30:33;26.50;99.90
13682;DHT22;6913;49.892;7.936;2023-07-24T10:33:05;26.30;99.90
13682;DHT22;6913;49.892;7.936;2023-07-24T10:35:40;26.20;99.90
13682;DHT22;6913;49.892;7.936;2023-07-24T10:38:08;26.10;99.90
13682;DHT22;6913;49.892;7.936;2023-07-24T10:40:34;26.00;99.90
13682;DHT22;6913;49.892;7.936;2023-07-24T10:43:07;26.00;99.90
13682;DHT22;6913;49.892;7.936;2023-07-24T10:45:47;25.90;99.90
13682;DHT22;6913;49.892;7.936;2023-07-24T10:48:15;25.90;99.90
13682;DHT22;6913;49.892;7.936;2023-07-24T10:50:43;25.90;99.90
13682;DHT22;6913;49.892;7.936;2023-07-24T10:53:11;25.90;99.90
13682;DHT22;6913;49.892;7.936;2023-07-24T10:55:38;25.90;99.90
13682;DHT22;6913;49.892;7.936;2023-07-24T10:58:08;25.90;99.90
13682;DHT22;6913;49.892;7.936;2023-07-24T11:00:35;25.90;99.90
13682;DHT22;6913;49.892;7.936;2023-07-24T11:03:02;26.10;99.90
13682;DHT22;6913;49.892;7.936;2023-07-24T11:05:29;26.30;99.90
13682;DHT22;6913;49.892;7.936;2023-07-24T11:07:56;26.40;99.90
13682;DHT22;6913;49.892;7.936;2023-07-24T11:10:24;26.10;99.90
13682;DHT22;6913;49.892;7.936;2023-07-24T11:12:51;26.10;99.90
13682;DHT22;6913;49.892;7.936;2023-07-24T11:15:25;26.30;99.90
13682;DHT22;6913;49.892;7.936;2023-07-24T11:17:53;26.30;99.90
13682;DHT22;6913;49.892;7.936;2023-07-24T11:20:20;26.40;99.90
13682;DHT22;6913;49.892;7.936;2023-07-24T11:22:47;26.60;99.90
13682;DHT22;6913;49.892;7.936;2023-07-24T11:25:14;26.70;99.90
13682;DHT22;6913;49.892;7.936;2023-07-24T11:27:42;27.10;99.90
13682;DHT22;6913;49.892;7.936;2023-07-24T11:30:10;27.50;99.90
13682;DHT22;6913;49.892;7.936;2023-07-24T11:32:40;27.90;99.90
13682;DHT22;6913;49.892;7.936;2023-07-24T11:35:07;28.10;99.90
13682;DHT22;6913;49.892;7.936;2023-07-24T11:37:35;28.10;99.70
13682;DHT22;6913;49.892;7.936;2023-07-24T11:40:03;27.90;99.60
13682;DHT22;6913;49.892;7.936;2023-07-24T11:42:37;27.90;99.70
13682;DHT22;6913;49.892;7.936;2023-07-24T11:45:05;28.00;99.40
13682;DHT22;6913;49.892;7.936;2023-07-24T11:47:43;28.00;99.40
13682;DHT22;6913;49.892;7.936;2023-07-24T11:50:10;27.90;99.40
13682;DHT22;6913;49.892;7.936;2023-07-24T11:52:38;27.40;99.40
13682;DHT22;6913;49.892;7.936;2023-07-24T11:55:07;27.20;99.90
13682;DHT22;6913;49.892;7.936;2023-07-24T11:57:34;27.40;99.90
13682;DHT22;6913;49.892;7.936;2023-07-24T12:00:01;27.00;99.90
13682;DHT22;6913;49.892;7.936;2023-07-24T12:02:29;26.70;99.90
13682;DHT22;6913;49.892;7.936;2023-07-24T12:04:58;26.70;99.90
13682;DHT22;6913;49.892;7.936;2023-07-24T12:07:30;26.60;99.90
13682;DHT22;6913;49.892;7.936;2023-07-24T12:09:58;26.60;99.90
13682;DHT22;6913;49.892;7.936;2023-07-24T12:12:24;27.40;99.90
13682;DHT22;6913;49.892;7.936;2023-07-24T12:14:52;27.70;99.90
13682;DHT22;6913;49.892;7.936;2023-07-24T12:17:19;28.30;99.80
13682;DHT22;6913;49.892;7.936;2023-07-24T12:19:46;27.90;98.70
13682;DHT22;6913;49.892;7.936;2023-07-24T12:22:15;27.40;99.30
13682;DHT22;6913;49.892;7.936;2023-07-24T12:24:44;27.90;99.50
13682;DHT22;6913;49.892;7.936;2023-07-24T12:27:11;28.30;98.90
13682;DHT22;6913;49.892;7.936;2023-07-24T12:29:38;28.30;98.50
13682;DHT22;6913;49.892;7.936;2023-07-24T12:32:05;27.90;99.00
13682;DHT22;6913;49.892;7.936;2023-07-24T12:34:32;28.00;99.00
13682;DHT22;6913;49.892;7.936;2023-07-24T12:36:59;27.80;99.30
13682;DHT22;6913;49.892;7.936;2023-07-24T12:39:27;28.30;99.20
13682;DHT22;6913;49.892;7.936;2023-07-24T12:41:54;28.30;98.70
13682;DHT22;6913;49.892;7.936;2023-07-24T12:44:21;28.10;98.70
13682;DHT22;6913;49.892;7.936;2023-07-24T12:46:49;28.00;99.00
13682;DHT22;6913;49.892;7.936;2023-07-24T12:49:16;27.80;99.30
13682;DHT22;6913;49.892;7.936;2023-07-24T12:51:43;27.70;99.60
13682;DHT22;6913;49.892;7.936;2023-07-24T12:54:09;27.70;99.40
13682;DHT22;6913;49.892;7.936;2023-07-24T12:56:38;27.70;99.60
13682;DHT22;6913;49.892;7.936;2023-07-24T12:59:05;27.80;99.70
13682;DHT22;6913;49.892;7.936;2023-07-24T13:01:31;27.80;99.70
13682;DHT22;6913;49.892;7.936;2023-07-24T13:03:58;27.70;99.50
13682;DHT22;6913;49.892;7.936;2023-07-24T13:06:25;27.40;99.90
13682;DHT22;6913;49.892;7.936;2023-07-24T13:08:52;27.30;99.90
13682;DHT22;6913;49.892;7.936;2023-07-24T13:11:19;27.30;99.90
13682;DHT22;6913;49.892;7.936;2023-07-24T13:13:48;27.20;99.90
13682;DHT22;6913;49.892;7.936;2023-07-24T13:16:15;26.90;99.90
13682;DHT22;6913;49.892;7.936;2023-07-24T13:18:42;26.80;99.90
13682;DHT22;6913;49.892;7.936;2023-07-24T13:21:09;26.80;99.90
13682;DHT22;6913;49.892;7.936;2023-07-24T13:23:36;27.10;99.90
13682;DHT22;6913;49.892;7.936;2023-07-24T13:26:03;27.20;99.90
13682;DHT22;6913;49.892;7.936;2023-07-24T13:28:30;27.10;99.90
13682;DHT22;6913;49.892;7.936;2023-07-24T13:30:58;26.80;99.90
13682;DHT22;6913;49.892;7.936;2023-07-24T13:33:25;26.70;99.90
13682;DHT22;6913;49.892;7.936;2023-07-24T13:35:52;26.30;99.90
13682;DHT22;6913;49.892;7.936;2023-07-24T13:38:19;26.20;99.90
13682;DHT22;6913;49.892;7.936;2023-07-24T13:40:46;26.20;99.90
13682;DHT22;6913;49.892;7.936;2023-07-24T13:43:13;26.40;99.90
13682;DHT22;6913;49.892;7.936;2023-07-24T13:45:40;26.90;99.90
13682;DHT22;6913;49.892;7.936;2023-07-24T13:48:09;26.80;99.90
13682;DHT22;6913;49.892;7.936;2023-07-24T13:50:36;26.80;99.90
13682;DHT22;6913;49.892;7.936;2023-07-24T13:53:02;26.80;99.90
13682;DHT22;6913;49.892;7.936;2023-07-24T13:55:29;27.10;99.90
13682;DHT22;6913;49.892;7.936;2023-07-24T13:57:56;27.20;99.90
13682;DHT22;6913;49.892;7.936;2023-07-24T14:00:23;27.50;99.90
13682;DHT22;6913;49.892;7.936;2023-07-24T14:02:50;27.70;99.90
13682;DHT22;6913;49.892;7.936;2023-07-24T14:05:18;27.20;99.90
13682;DHT22;6913;49.892;7.936;2023-07-24T14:07:45;26.80;99.90
13682;DHT22;6913;49.892;7.936;2023-07-24T14:10:12;26.70;99.90
13682;DHT22;6913;49.892;7.936;2023-07-24T14:12:39;26.70;99.90
13682;DHT22;6913;49.892;7.936;2023-07-24T14:15:07;27.00;99.90
13682;DHT22;6913;49.892;7.936;2023-07-24T14:17:34;27.20;99.90
13682;DHT22;6913;49.892;7.936;2023-07-24T14:20:01;27.40;99.90
13682;DHT22;6913;49.892;7.936;2023-07-24T14:22:29;27.30;99.90
13682;DHT22;6913;49.892;7.936;2023-07-24T14:24:56;27.20;99.90
13682;DHT22;6913;49.892;7.936;2023-07-24T14:27:23;27.40;99.90
13682;DHT22;6913;49.892;7.936;2023-07-24T14:29:50;27.60;99.90
13682;DHT22;6913;49.892;7.936;2023-07-24T14:32:17;28.20;99.90
13682;DHT22;6913;49.892;7.936;2023-07-24T14:34:45;28.20;99.80
13682;DHT22;6913;49.892;7.936;2023-07-24T14:37:12;27.80;99.60
13682;DHT22;6913;49.892;7.936;2023-07-24T14:39:40;27.30;99.90
13682;DHT22;6913;49.892;7.936;2023-07-24T14:42:07;26.80;99.90
13682;DHT22;6913;49.892;7.936;2023-07-24T14:44:34;26.50;99.90
13682;DHT22;6913;49.892;7.936;2023-07-24T14:47:01;26.30;99.90
13682;DHT22;6913;49.892;7.936;2023-07-24T14:49:28;26.40;99.90
13682;DHT22;6913;49.892;7.936;2023-07-24T14:51:55;26.40;99.90
13682;DHT22;6913;49.892;7.936;2023-07-24T14:54:22;26.50;99.90
13682;DHT22;6913;49.892;7.936;2023-07-24T14:56:50;26.40;99.90
13682;DHT22;6913;49.892;7.936;2023-07-24T14:59:17;26.10;99.90
13682;DHT22;6913;49.892;7.936;2023-07-24T15:01:44;25.60;99.90
13682;DHT22;6913;49.892;7.936;2023-07-24T15:04:11;26.00;99.90
13682;DHT22;6913;49.892;7.936;2023-07-24T15:06:38;26.10;99.90
13682;DHT22;6913;49.892;7.936;2023-07-24T15:09:04;26.30;99.90
13682;DHT22;6913;49.892;7.936;2023-07-24T15:11:31;26.10;99.90
13682;DHT22;6913;49.892;7.936;2023-07-24T15:13:59;26.00;99.90
13682;DHT22;6913;49.892;7.936;2023-07-24T15:16:26;26.50;99.90
13682;DHT22;6913;49.892;7.936;2023-07-24T15:18:53;26.80;99.90
13682;DHT22;6913;49.892;7.936;2023-07-24T15:21:20;26.90;99.90
13682;DHT22;6913;49.892;7.936;2023-07-24T15:23:47;27.10;99.90
13682;DHT22;6913;49.892;7.936;2023-07-24T15:26:17;27.10;99.90
13682;DHT22;6913;49.892;7.936;2023-07-24T15:28:44;27.10;99.90
13682;DHT22;6913;49.892;7.936;2023-07-24T15:31:12;27.20;99.90
13682;DHT22;6913;49.892;7.936;2023-07-24T15:33:39;27.00;99.90
13682;DHT22;6913;49.892;7.936;2023-07-24T15:36:06;26.90;99.90
13682;DHT22;6913;49.892;7.936;2023-07-24T15:38:33;26.90;99.90
13682;DHT22;6913;49.892;7.936;2023-07-24T15:41:00;26.90;99.90
13682;DHT22;6913;49.892;7.936;2023-07-24T15:43:26;27.00;99.90
13682;DHT22;6913;49.892;7.936;2023-07-24T15:45:53;26.70;99.90
13682;DHT22;6913;49.892;7.936;2023-07-24T15:48:22;26.70;99.90
13682;DHT22;6913;49.892;7.936;2023-07-24T15:50:49;26.70;99.90
13682;DHT22;6913;49.892;7.936;2023-07-24T15:53:15;26.70;99.30